M I D A S
Marine Information and Data Acquisition System
Tripno 1701 of the Zeeleeuw from 2009-05-28 06:58:06 to 2009-05-28 15:08:03
Back to CruiseResearch ActivitiesStationsMapUnderway DataData graphs

EquipmentUnitsComment
TimeDGPSUTC
LatitudeDGPSDM.mWGS84
LongitudeDGPSDM.mWGS84
TemperatureSBE03/SBE38deg celciusITS90
ConductivitySBE21S/mITS90
SalinitySBE21 Practical Salinity Units
ChlorophylAChelsea fluorimeterg/lCalibrated in Aceton
Missing or incorrect values are displayed as -999
Sea surface data collected by the RV Zeeleeuw from 2009-05-28 07:10:27 to 2009-05-28 15:17:22
Time Latitude Longitude Temperature Conductivity Salinity ChlorophylA
2009-05-28 07:11:36 51°13.679 2°55.905 -999 0.025331 0.144629 0.078977
2009-05-28 07:12:36 51°13.696 2°55.827 -999 0.025125 0.143447 0.078977
2009-05-28 07:13:36 51°13.698 2°55.755 -999 0.025331 0.144629 0.078977
2009-05-28 07:14:34 51°13.706 2°55.745 -999 0.025125 0.143452 0.078977
2009-05-28 07:15:32 51°13.703 2°55.742 -999 0.025331 0.144613 0.078977
2009-05-28 07:16:34 51°13.72 2°55.727 -999 0.026052 0.148788 0.078977
2009-05-28 07:17:32 51°13.794 2°55.66 -999 0.025331 0.144606 0.078977
2009-05-28 07:18:32 51°13.901 2°55.582 -999 0.025331 0.144619 0.078977
2009-05-28 07:19:32 51°14.017 2°55.504 -999 0.025537 0.145799 0.078977
2009-05-28 07:20:32 51°14.137 2°55.413 -999 0.025949 0.14816 0.078977
2009-05-28 07:21:32 51°14.258 2°55.278 -999 0.026154 0.149353 0.078977
2009-05-28 07:22:32 51°14.366 2°55.087 -999 0.025743 0.14694 0.078977
2009-05-28 07:23:32 51°14.478 2°54.852 -999 0.024714 0.141011 0.078977
2009-05-28 07:24:32 51°14.613 2°54.62 -999 0.024096 0.137519 0.078977
2009-05-28 07:25:32 51°14.765 2°54.423 -999 0.024611 0.140582 0.078977
2009-05-28 07:26:32 51°14.925 2°54.243 -999 0.025023 0.143136 0.078977
2009-05-28 07:27:32 51°15.087 2°54.077 -999 0.023993 0.137632 0.078977
2009-05-28 07:28:32 51°15.254 2°53.919 -999 0.023685 0.135901 0.078977
2009-05-28 07:29:32 51°15.423 2°53.769 -999 0.023891 0.137114 0.078977
2009-05-28 07:30:32 51°15.595 2°53.627 -999 0.025228 0.144976 0.078977
2009-05-28 07:31:32 51°15.768 2°53.484 -999 0.023891 0.137183 0.078977
2009-05-28 07:32:32 51°15.942 2°53.338 -999 0.023993 0.137797 0.078977
2009-05-28 07:33:32 51°16.117 2°53.191 -999 0.023479 0.134825 0.078977
2009-05-28 07:34:32 51°16.291 2°53.042 -999 0.024199 0.138985 0.078977
2009-05-28 07:35:32 51°16.464 2°52.893 -999 0.023993 0.1378 0.078977
2009-05-28 07:36:32 51°16.638 2°52.747 -999 0.023273 0.133649 0.078977
2009-05-28 07:37:32 51°16.814 2°52.62 -999 0.025125 0.144277 0.078977
2009-05-28 07:38:32 51°17.001 2°52.555 -999 0.025331 0.145483 0.078977
2009-05-28 07:39:32 51°17.192 2°52.535 -999 0.025331 0.145567 0.078977
2009-05-28 07:40:32 51°17.383 2°52.515 -999 0.028316 0.16281 0.078977
2009-05-28 07:41:32 51°17.573 2°52.491 -999 0.025331 0.145446 0.078977
2009-05-28 07:42:32 51°17.763 2°52.474 -999 0.026155 0.15023 0.078977
2009-05-28 07:43:32 51°17.954 2°52.462 -999 0.02883 0.165805 0.078977
2009-05-28 07:44:32 51°18.14 2°52.503 -999 0.026978 0.154947 0.078977
2009-05-28 07:45:32 51°18.323 2°52.566 -999 0.028727 0.165159 0.113802
2009-05-28 07:46:32 51°18.503 2°52.648 -999 0.027492 0.157987 0.078977
2009-05-28 07:47:32 51°18.683 2°52.73 -999 0.027492 0.157938 0.078977
2009-05-28 07:48:32 51°18.865 2°52.807 -999 0.028933 0.16633 0.078977
2009-05-28 07:49:32 51°19.047 2°52.883 -999 0.030168 0.173503 0.078977
2009-05-28 07:50:32 51°19.229 2°52.957 -999 0.027184 0.156241 0.078977
2009-05-28 07:51:32 51°19.412 2°53.031 -999 0.027286 0.156781 0.078977
2009-05-28 07:52:32 51°19.596 2°53.105 -999 0.035107 0.20238 0.078977
2009-05-28 07:53:32 51°19.776 2°53.192 -999 0.032226 0.185475 0.078977
2009-05-28 07:54:32 51°19.951 2°53.296 -999 0.029036 0.166934 0.113802
2009-05-28 07:55:32 51°20.124 2°53.401 -999 0.027801 0.159789 0.078977
2009-05-28 07:56:32 51°20.297 2°53.505 -999 0.028521 0.163885 0.113802
2009-05-28 07:57:32 51°20.467 2°53.618 -999 0.032843 0.189076 0.113802
2009-05-28 07:58:32 51°20.638 2°53.728 -999 0.03202 0.184198 0.078977
2009-05-28 07:59:32 51°20.81 2°53.834 -999 0.030682 0.176399 0.078977
2009-05-28 08:00:32 51°20.983 2°53.936 -999 0.030888 0.177588 0.113802
2009-05-28 08:01:32 51°21.155 2°54.044 -999 0.030477 0.175204 0.078977
2009-05-28 08:02:32 51°21.328 2°54.147 -999 0.032843 0.189069 0.113802
2009-05-28 08:03:32 51°21.493 2°54.27 -999 0.029448 0.169137 0.113802
2009-05-28 08:04:32 51°21.649 2°54.421 -999 0.036034 0.207658 0.113802
2009-05-28 08:05:32 51°21.786 2°54.608 -999 0.033049 0.190209 0.113802
2009-05-28 08:06:32 51°21.904 2°54.828 -999 0.02955 0.169791 0.113802
2009-05-28 08:07:32 51°22.014 2°55.059 -999 0.032432 0.186518 0.113802
2009-05-28 08:08:32 51°22.099 2°55.31 -999 0.030065 0.1727 0.113802
2009-05-28 08:09:32 51°22.176 2°55.568 -999 0.029448 0.169069 0.113802
2009-05-28 08:10:33 51°22.256 2°55.828 -999 0.034799 0.200276 0.113802
2009-05-28 08:11:32 51°22.335 2°56.078 -999 0.030065 0.172687 0.113802
2009-05-28 08:12:32 51°22.417 2°56.328 -999 0.027081 0.155427 0.113802
2009-05-28 08:13:32 51°22.5 2°56.576 -999 0.030065 0.172646 0.113802
2009-05-28 08:14:32 51°22.618 2°56.785 -999 0.02883 0.165504 0.113802
2009-05-28 08:15:32 51°22.795 2°56.836 -999 0.030682 0.176165 0.113802
2009-05-28 08:16:32 51°22.985 2°56.796 -999 0.027698 0.15887 0.113802
2009-05-28 08:17:32 51°23.175 2°56.753 -999 0.026875 0.154122 0.113802
2009-05-28 08:18:32 51°23.367 2°56.73 -999 0.02811 0.161237 0.113802
2009-05-28 08:19:32 51°23.559 2°56.739 -999 0.026154 0.149882 0.113802
2009-05-28 08:20:32 51°23.75 2°56.755 -999 0.033255 0.191177 0.113802
2009-05-28 08:21:32 51°23.94 2°56.771 -999 0.031094 0.178523 0.113802
2009-05-28 08:22:32 51°24.129 2°56.79 -999 0.027904 0.16009 0.113802
2009-05-28 08:23:32 51°24.32 2°56.809 -999 0.02636 0.151022 0.113802
2009-05-28 08:24:33 51°24.513 2°56.828 -999 0.02636 0.151137 0.113802
2009-05-28 08:25:32 51°24.702 2°56.848 -999 0.026875 0.154038 0.113802
2009-05-28 08:26:32 51°24.895 2°56.868 -999 0.029653 0.170073 0.113802
2009-05-28 08:27:32 51°25.086 2°56.891 -999 0.026566 0.152195 0.113802
2009-05-28 08:28:32 51°25.278 2°56.912 -999 0.030682 0.176038 0.113802
2009-05-28 08:29:32 51°25.47 2°56.933 -999 0.026463 0.151607 0.113802
2009-05-28 08:30:32 51°25.66 2°56.954 -999 0.028727 0.16472 0.113802
2009-05-28 08:31:32 51°25.848 2°56.993 -999 0.028213 0.161744 0.113802
2009-05-28 08:32:32 51°26.031 2°57.066 -999 0.029242 0.167699 0.113802
2009-05-28 08:33:32 51°26.214 2°57.143 -999 0.031814 0.182655 0.113802
2009-05-28 08:34:32 51°26.397 2°57.216 -999 0.033152 0.190463 0.113802
2009-05-28 08:35:32 51°26.581 2°57.296 -999 0.026772 0.153435 0.113802
2009-05-28 08:36:32 51°26.764 2°57.37 -999 0.030374 0.174293 0.113802
2009-05-28 08:37:32 51°26.947 2°57.442 -999 0.031917 0.183302 0.148626
2009-05-28 08:38:32 51°27.129 2°57.515 -999 0.033975 0.195306 0.148626
2009-05-28 08:39:32 51°27.311 2°57.59 -999 0.029962 0.171868 0.113802
2009-05-28 08:40:33 51°27.495 2°57.67 -999 0.031403 0.180279 0.148626
2009-05-28 08:41:32 51°27.675 2°57.745 -999 0.027904 0.160014 0.113802
2009-05-28 08:42:32 51°27.861 2°57.817 -999 0.026772 0.153433 0.148626
2009-05-28 08:43:32 51°28.052 2°57.849 -999 0.036034 0.207324 0.148626
2009-05-28 08:44:32 51°28.247 2°57.854 -999 0.027492 0.15757 0.113802
2009-05-28 08:45:32 51°28.441 2°57.821 -999 0.026566 0.152198 0.148626
2009-05-28 08:46:33 51°28.632 2°57.773 -999 0.027081 0.155221 0.113802
2009-05-28 08:47:33 51°28.82 2°57.708 -999 0.029962 0.171905 0.148626
2009-05-28 08:48:32 51°29.005 2°57.646 -999 0.032741 0.188153 0.148626
2009-05-28 08:49:33 51°29.195 2°57.575 -999 0.029448 0.168852 0.113802
2009-05-28 08:50:32 51°29.373 2°57.47 -999 0.027081 0.155201 0.148626
2009-05-28 08:51:32 51°29.552 2°57.345 -999 0.029139 0.167179 0.148626
2009-05-28 08:52:32 51°29.733 2°57.221 -999 0.02811 0.161223 0.148626
2009-05-28 08:53:33 51°29.918 2°57.099 -999 0.02564 0.146843 0.148626
2009-05-28 08:54:32 51°30.098 2°56.982 -999 0.029756 0.170695 0.148626
2009-05-28 08:55:32 51°30.28 2°56.866 -999 0.025846 0.148014 0.148626
2009-05-28 08:56:32 51°30.461 2°56.746 -999 0.026772 0.15338 0.148626
2009-05-28 08:57:32 51°30.641 2°56.625 -999 0.026772 0.153427 0.148626
2009-05-28 08:58:32 51°30.821 2°56.502 -999 0.025846 0.148006 0.113802
2009-05-28 08:59:32 51°30.996 2°56.373 -999 0.031814 0.182611 0.148626
2009-05-28 09:00:32 51°31.172 2°56.248 -999 0.028624 0.164064 0.148626
2009-05-28 09:01:32 51°31.345 2°56.121 -999 0.025537 0.146224 0.148626
2009-05-28 09:02:32 51°31.517 2°56 -999 0.031609 0.181417 0.148626
2009-05-28 09:03:33 51°31.688 2°55.865 -999 0.033152 0.190417 0.148626
2009-05-28 09:04:32 51°31.779 2°55.607 -999 0.026257 0.150393 0.148626
2009-05-28 09:05:33 51°31.827 2°55.309 -999 0.028933 0.165879 0.148626
2009-05-28 09:06:32 51°31.862 2°55.076 -999 0.027081 0.155184 0.113802
2009-05-28 09:07:32 51°31.888 2°54.844 -999 0.027698 0.158673 0.113802
2009-05-28 09:08:32 51°31.892 2°54.607 -999 0.027081 0.155071 0.113802
2009-05-28 09:09:32 51°31.867 2°54.367 -999 0.027492 0.157441 0.113802
2009-05-28 09:10:32 51°31.789 2°54.118 -999 0.028521 0.163358 0.148626
2009-05-28 09:11:32 51°31.689 2°53.837 -999 0.028213 0.161535 0.148626
2009-05-28 09:12:32 51°31.597 2°53.542 -999 0.027698 0.158555 0.148626
2009-05-28 09:13:32 51°31.5 2°53.249 -999 0.028624 0.163905 0.113802
2009-05-28 09:14:32 51°31.396 2°52.964 -999 0.033152 0.190212 0.148626
2009-05-28 09:15:32 51°31.295 2°52.676 -999 0.031917 0.182973 0.113802
2009-05-28 09:16:33 51°31.194 2°52.382 -999 0.029756 0.170604 0.113802
2009-05-28 09:17:32 51°31.092 2°52.099 -999 0.04087 0.235503 0.148626
2009-05-28 09:18:32 51°30.988 2°51.813 -999 0.030888 0.177012 0.113802
2009-05-28 09:19:33 51°30.882 2°51.52 -999 0.030168 0.172849 0.113802
2009-05-28 09:20:32 51°30.781 2°51.233 -999 0.029345 0.168064 0.113802
2009-05-28 09:21:32 51°30.677 2°50.942 -999 0.028521 0.163233 0.148626
2009-05-28 09:22:32 51°30.573 2°50.652 -999 0.026875 0.153734 0.113802
2009-05-28 09:23:32 51°30.464 2°50.365 -999 0.027286 0.15608 0.113802
2009-05-28 09:24:32 51°30.358 2°50.073 -999 0.029036 0.166211 0.113802
2009-05-28 09:25:33 51°30.251 2°49.775 -999 0.028213 0.161373 0.113802
2009-05-28 09:26:33 51°30.142 2°49.484 -999 0.029447 0.168533 0.113802
2009-05-28 09:27:32 51°30.039 2°49.191 -999 0.028624 0.163768 0.113802
2009-05-28 09:28:33 51°29.929 2°48.889 -999 0.02883 0.164945 0.148626
2009-05-28 09:29:32 51°29.822 2°48.596 -999 0.027389 0.156608 0.148626
2009-05-28 09:30:32 51°29.716 2°48.294 -999 0.027801 0.158952 0.113802
2009-05-28 09:31:33 51°29.607 2°47.987 -999 0.029859 0.170938 0.113802
2009-05-28 09:32:33 51°29.501 2°47.682 -999 0.02883 0.164951 0.113802
2009-05-28 09:33:32 51°29.392 2°47.387 -999 0.027286 0.155973 0.113802
2009-05-28 09:34:33 51°29.281 2°47.08 -999 0.028213 0.161385 0.113802
2009-05-28 09:35:33 51°29.174 2°46.776 -999 0.02811 0.160759 0.113802
2009-05-28 09:36:32 51°29.07 2°46.476 -999 0.027801 0.158909 0.113802
2009-05-28 09:37:33 51°28.959 2°46.168 -999 0.028007 0.160151 0.113802
2009-05-28 09:38:32 51°28.855 2°45.868 -999 0.027595 0.157763 0.113802
2009-05-28 09:39:32 51°28.749 2°45.561 -999 0.026978 0.154181 0.113802
2009-05-28 09:40:33 51°28.64 2°45.252 -999 0.027389 0.156495 0.113802
2009-05-28 09:41:33 51°28.536 2°44.944 -999 0.026257 0.149992 0.113802
2009-05-28 09:42:33 51°28.429 2°44.638 -999 0.028007 0.160093 0.113802
2009-05-28 09:43:33 51°28.323 2°44.331 -999 0.026875 0.153536 0.113802
2009-05-28 09:44:33 51°28.218 2°44.023 -999 0.026669 0.152377 0.113802
2009-05-28 09:45:32 51°28.112 2°43.721 -999 0.026669 0.152433 0.113802
2009-05-28 09:46:33 51°27.999 2°43.412 -999 0.02636 0.150622 0.113802
2009-05-28 09:47:32 51°27.89 2°43.112 -999 0.026978 0.15414 0.113802
2009-05-28 09:48:32 51°27.783 2°42.804 -999 0.028213 0.161256 0.113802
2009-05-28 09:49:32 51°27.673 2°42.496 -999 0.028213 0.161233 0.113802
2009-05-28 09:50:32 51°27.564 2°42.186 -999 0.030682 0.175579 0.113802
2009-05-28 09:51:32 51°27.519 2°41.852 -999 0.030888 0.176749 0.113802
2009-05-28 09:52:32 51°27.506 2°41.508 -999 0.028007 0.160031 0.113802
2009-05-28 09:53:33 51°27.491 2°41.157 -999 0.027389 0.156475 0.113802
2009-05-28 09:54:32 51°27.472 2°40.82 -999 0.027286 0.155843 0.113802
2009-05-28 09:55:33 51°27.453 2°40.472 -999 0.026566 0.151747 0.113802
2009-05-28 09:56:32 51°27.457 2°40.144 -999 0.031609 0.180906 0.113802
2009-05-28 09:57:33 51°27.561 2°39.884 -999 0.032535 0.186289 0.113802
2009-05-28 09:58:33 51°27.714 2°39.724 -999 0.028521 0.162972 0.113802
2009-05-28 09:59:32 51°27.873 2°39.585 -999 0.027184 0.155251 0.113802
2009-05-28 10:00:33 51°28.033 2°39.444 -999 0.025846 0.147588 0.113802
2009-05-28 10:01:32 51°28.197 2°39.324 -999 0.028521 0.16301 0.113802
2009-05-28 10:02:33 51°28.374 2°39.267 -999 0.031609 0.180936 0.113802
2009-05-28 10:03:32 51°28.528 2°39.346 -999 0.032946 0.188608 0.113802
2009-05-28 10:04:33 51°28.608 2°39.585 -999 0.029139 0.166711 0.113802
2009-05-28 10:05:32 51°28.686 2°39.822 -999 0.030065 0.171871 0.113802
2009-05-28 10:06:33 51°28.766 2°40.072 -999 0.02883 0.164768 0.113802
2009-05-28 10:07:33 51°28.847 2°40.316 -999 0.028624 0.16361 0.113802
2009-05-28 10:08:32 51°28.923 2°40.559 -999 0.026875 0.153459 0.113802
2009-05-28 10:09:33 51°29.001 2°40.805 -999 0.027184 0.155212 0.113802
2009-05-28 10:10:32 51°29.079 2°41.04 -999 0.027389 0.156384 0.113802
2009-05-28 10:11:33 51°29.154 2°41.286 -999 0.026257 0.149865 0.113802
2009-05-28 10:12:33 51°29.231 2°41.527 -999 0.028213 0.161145 0.113802
2009-05-28 10:13:32 51°29.305 2°41.766 -999 0.026566 0.151652 0.113802
2009-05-28 10:14:32 51°29.382 2°42.009 -999 0.02564 0.146292 0.113802
2009-05-28 10:15:33 51°29.46 2°42.256 -999 0.026566 0.151671 0.113802
2009-05-28 10:16:33 51°29.539 2°42.498 -999 0.026978 0.15395 0.113802
2009-05-28 10:17:32 51°29.617 2°42.733 -999 0.028418 0.162293 0.113802
2009-05-28 10:18:33 51°29.699 2°42.979 -999 0.028418 0.162263 0.113802
2009-05-28 10:19:33 51°29.79 2°43.206 -999 0.029242 0.167062 0.148626
2009-05-28 10:20:33 51°29.882 2°43.432 -999 0.027184 0.155111 0.113802
2009-05-28 10:21:33 51°29.973 2°43.655 -999 0.029036 0.165877 0.148626
2009-05-28 10:22:32 51°30.064 2°43.877 -999 0.026463 0.151036 0.113802
2009-05-28 10:23:33 51°30.159 2°44.105 -999 0.02955 0.168863 0.148626
2009-05-28 10:24:32 51°30.25 2°44.328 -999 0.027595 0.15754 0.113802
2009-05-28 10:25:33 51°30.344 2°44.557 -999 0.026772 0.152787 0.113802
2009-05-28 10:26:32 51°30.434 2°44.78 -999 0.026875 0.153387 0.113802
2009-05-28 10:27:32 51°30.528 2°45.007 -999 0.026669 0.152155 0.113802
2009-05-28 10:28:32 51°30.621 2°45.235 -999 0.028521 0.16293 0.113802
2009-05-28 10:29:32 51°30.716 2°45.463 -999 0.030065 0.171749 0.113802
2009-05-28 10:30:32 51°30.812 2°45.688 -999 0.026566 0.151553 0.113802
2009-05-28 10:31:33 51°30.907 2°45.915 -999 0.026978 0.153939 0.113802
2009-05-28 10:32:33 51°31.002 2°46.136 -999 0.029139 0.166429 0.113802
2009-05-28 10:33:32 51°31.095 2°46.353 -999 0.026875 0.153428 0.113802
2009-05-28 10:34:33 51°31.188 2°46.58 -999 0.027492 0.156897 0.113802
2009-05-28 10:35:32 51°31.268 2°46.809 -999 0.026669 0.152191 0.113802
2009-05-28 10:36:33 51°31.358 2°47.038 -999 0.026052 0.148601 0.113802
2009-05-28 10:37:32 51°31.444 2°47.26 -999 0.028624 0.163411 0.113802
2009-05-28 10:38:33 51°31.53 2°47.493 -999 0.028933 0.165169 0.113802
2009-05-28 10:39:32 51°31.615 2°47.719 -999 0.028624 0.163446 0.113802
2009-05-28 10:40:32 51°31.704 2°47.944 -999 0.029345 0.167632 0.113802
2009-05-28 10:41:33 51°31.794 2°48.171 -999 0.029447 0.168174 0.113802
2009-05-28 10:42:33 51°31.881 2°48.395 -999 0.030374 0.173679 0.113802
2009-05-28 10:43:33 51°31.969 2°48.615 -999 0.033152 0.189696 0.113802
2009-05-28 10:44:32 51°32.052 2°48.831 -999 0.02883 0.164609 0.113802
2009-05-28 10:45:33 51°32.138 2°49.057 -999 0.028213 0.161045 0.113802
2009-05-28 10:46:32 51°32.223 2°49.272 -999 0.026669 0.152152 0.113802
2009-05-28 10:47:33 51°32.309 2°49.496 -999 0.027081 0.154514 0.113802
2009-05-28 10:48:33 51°32.395 2°49.717 -999 0.027801 0.158638 0.113802
2009-05-28 10:49:33 51°32.482 2°49.934 -999 0.025331 0.144461 0.148626
2009-05-28 10:50:33 51°32.567 2°50.152 -999 0.025949 0.147948 0.113802
2009-05-28 10:51:33 51°32.65 2°50.377 -999 0.029139 0.16638 0.113802
2009-05-28 10:52:32 51°32.731 2°50.599 -999 0.027595 0.157463 0.148626
2009-05-28 10:53:32 51°32.816 2°50.824 -999 0.031609 0.180766 0.113802
2009-05-28 10:54:33 51°32.902 2°51.055 -999 0.028007 0.159794 0.113802
2009-05-28 10:55:32 51°32.981 2°51.283 -999 0.026875 0.153254 0.148626
2009-05-28 10:56:32 51°33.061 2°51.517 -999 0.02955 0.168697 0.148626
2009-05-28 10:57:33 51°33.144 2°51.757 -999 0.027492 0.156792 0.113802
2009-05-28 10:58:33 51°33.224 2°51.996 -999 0.026772 0.152661 0.148626
2009-05-28 10:59:33 51°33.301 2°52.232 -999 0.026978 0.153861 0.113802
2009-05-28 11:00:33 51°33.378 2°52.47 -999 0.025743 0.146776 0.113802
2009-05-28 11:01:33 51°33.457 2°52.707 -999 0.027595 0.157483 0.148626
2009-05-28 11:02:33 51°33.537 2°52.941 -999 0.027904 0.159167 0.113802
2009-05-28 11:03:33 51°33.616 2°53.178 -999 0.02955 0.168771 0.113802
2009-05-28 11:04:33 51°33.696 2°53.418 -999 0.027286 0.155609 0.113802
2009-05-28 11:05:33 51°33.776 2°53.658 -999 0.027698 0.158006 0.113802
2009-05-28 11:06:33 51°33.856 2°53.896 -999 0.027698 0.158026 0.113802
2009-05-28 11:07:32 51°33.934 2°54.132 -999 0.02636 0.150242 0.113802
2009-05-28 11:08:33 51°34.016 2°54.374 -999 0.025949 0.147916 0.113802
2009-05-28 11:09:33 51°34.103 2°54.601 -999 0.027389 0.156195 0.148626
2009-05-28 11:10:33 51°34.191 2°54.828 -999 0.026566 0.151444 0.148626
2009-05-28 11:11:33 51°34.28 2°55.056 -999 0.029962 0.170992 0.148626
2009-05-28 11:12:33 51°34.37 2°55.282 -999 0.026978 0.1538 0.148626
2009-05-28 11:13:33 51°34.46 2°55.511 -999 0.028316 0.161556 0.148626
2009-05-28 11:14:33 51°34.548 2°55.741 -999 0.028213 0.160908 0.113802
2009-05-28 11:15:33 51°34.636 2°55.97 -999 0.028624 0.163319 0.148626
2009-05-28 11:16:33 51°34.723 2°56.198 -999 0.028418 0.162054 0.113802
2009-05-28 11:17:33 51°34.808 2°56.428 -999 0.027184 0.154988 0.148626
2009-05-28 11:18:33 51°34.895 2°56.655 -999 0.028933 0.165073 0.148626
2009-05-28 11:19:33 51°34.982 2°56.884 -999 0.027184 0.155021 0.113802
2009-05-28 11:20:33 51°35.067 2°57.113 -999 0.027595 0.157335 0.148626
2009-05-28 11:21:32 51°35.151 2°57.333 -999 0.029036 0.165651 0.113802
2009-05-28 11:22:33 51°35.236 2°57.559 -999 0.026875 0.153202 0.148626
2009-05-28 11:23:33 51°35.321 2°57.78 -999 0.027698 0.157941 0.148626
2009-05-28 11:24:33 51°35.404 2°58.001 -999 0.027184 0.154971 0.148626
2009-05-28 11:25:33 51°35.49 2°58.221 -999 0.026154 0.14906 0.148626
2009-05-28 11:26:32 51°35.574 2°58.437 -999 0.031197 0.178221 0.113802
2009-05-28 11:27:33 51°35.632 2°58.688 -999 0.032123 0.183449 0.148626
2009-05-28 11:28:33 51°35.653 2°58.948 -999 0.032535 0.185888 0.148626
2009-05-28 11:29:33 51°35.555 2°59.194 -999 0.031814 0.181782 0.148626
2009-05-28 11:30:32 51°35.428 2°59.415 -999 0.0313 0.178747 0.148626
2009-05-28 11:31:33 51°35.3 2°59.648 -999 0.030477 0.17394 0.148626
2009-05-28 11:32:33 51°35.179 2°59.884 -999 0.041385 0.237737 0.148626
2009-05-28 11:33:33 51°35.061 3°0.124 -999 0.029345 0.167452 0.148626
2009-05-28 11:34:32 51°34.945 3°0.362 -999 0.032843 0.187685 0.113802
2009-05-28 11:35:33 51°34.821 3°0.607 -999 0.029962 0.171135 0.148626
2009-05-28 11:36:32 51°34.699 3°0.851 -999 0.03521 0.201528 0.148626
2009-05-28 11:37:32 51°34.546 3°1.065 -999 0.038092 0.218361 0.148626
2009-05-28 11:38:32 51°34.331 3°1.109 -999 0.035313 0.202206 0.148626
2009-05-28 11:39:33 51°34.139 3°0.928 -999 0.035416 0.202738 0.113802
2009-05-28 11:40:33 51°34.007 3°0.647 -999 0.032123 0.183604 0.148626
2009-05-28 11:41:32 51°33.888 3°0.359 -999 0.030374 0.173352 0.148626
2009-05-28 11:42:33 51°33.765 3°0.065 -999 0.030065 0.171567 0.148626
2009-05-28 11:43:33 51°33.647 2°59.773 -999 0.030477 0.173956 0.113802
2009-05-28 11:44:33 51°33.53 2°59.479 -999 0.029447 0.167953 0.148626
2009-05-28 11:45:33 51°33.416 2°59.183 -999 0.028933 0.165004 0.113802
2009-05-28 11:46:33 51°33.342 2°58.868 -999 0.033564 0.191811 0.148626
2009-05-28 11:47:33 51°33.326 2°58.538 -999 0.029036 0.165558 0.148626
2009-05-28 11:48:33 51°33.333 2°58.21 -999 0.032535 0.185809 0.148626
2009-05-28 11:49:33 51°33.368 2°57.891 -999 0.032741 0.18704 0.148626
2009-05-28 11:50:33 51°33.446 2°57.604 -999 0.032123 0.183361 0.148626
2009-05-28 11:51:33 51°33.544 2°57.337 -999 0.029036 0.16554 0.148626
2009-05-28 11:52:33 51°33.645 2°57.071 -999 0.028933 0.164995 0.148626
2009-05-28 11:53:33 51°33.752 2°56.808 -999 0.02811 0.160203 0.148626
2009-05-28 11:54:33 51°33.86 2°56.547 -999 0.027184 0.154859 0.148626
2009-05-28 11:55:33 51°33.967 2°56.284 -999 0.028316 0.161392 0.148626
2009-05-28 11:56:33 51°34.081 2°56.031 -999 0.028213 0.160702 0.113802
2009-05-28 11:57:33 51°34.197 2°55.777 -999 0.029962 0.170836 0.148626
2009-05-28 11:58:33 51°34.261 2°55.471 -999 0.026875 0.152992 0.148626
2009-05-28 11:59:33 51°34.241 2°55.127 -999 0.028007 0.159609 0.148626
2009-05-28 12:00:33 51°34.193 2°54.784 -999 0.028624 0.163126 0.148626
2009-05-28 12:01:33 51°34.139 2°54.442 -999 0.02883 0.164263 0.148626
2009-05-28 12:02:33 51°34.085 2°54.102 -999 0.027698 0.157718 0.148626
2009-05-28 12:03:33 51°34.032 2°53.761 -999 0.029139 0.166012 0.113802
2009-05-28 12:04:33 51°33.983 2°53.417 -999 0.029962 0.170709 0.148626
2009-05-28 12:05:33 51°33.947 2°53.073 -999 0.035107 0.200547 0.148626
2009-05-28 12:06:32 51°34.039 2°52.811 -999 0.031197 0.177839 0.148626
2009-05-28 12:07:33 51°34.18 2°52.594 -999 0.028727 0.163561 0.148626
2009-05-28 12:08:33 51°34.325 2°52.389 -999 0.027801 0.158235 0.148626
2009-05-28 12:09:32 51°34.469 2°52.186 -999 0.027184 0.154698 0.148626
2009-05-28 12:10:32 51°34.616 2°51.975 -999 0.028624 0.163008 0.148626
2009-05-28 12:11:33 51°34.765 2°51.757 -999 0.027081 0.154094 0.148626
2009-05-28 12:12:33 51°34.91 2°51.54 -999 0.02811 0.160021 0.148626
2009-05-28 12:13:33 51°35.061 2°51.35 -999 0.02811 0.15998 0.148626
2009-05-28 12:14:33 51°35.208 2°51.162 -999 0.027389 0.155849 0.148626
2009-05-28 12:15:33 51°35.374 2°51.1 -999 0.028316 0.161147 0.148626
2009-05-28 12:16:32 51°35.504 2°51.243 -999 0.03449 0.196816 0.148626
2009-05-28 12:17:33 51°35.603 2°51.476 -999 0.029962 0.17064 0.148626
2009-05-28 12:18:33 51°35.699 2°51.717 -999 0.029036 0.165276 0.148626
2009-05-28 12:19:32 51°35.792 2°51.958 -999 0.028521 0.162291 0.148626
2009-05-28 12:20:33 51°35.886 2°52.21 -999 0.027389 0.155782 0.18345
2009-05-28 12:21:33 51°35.981 2°52.453 -999 0.028624 0.162864 0.148626
2009-05-28 12:22:33 51°36.075 2°52.7 -999 0.029756 0.169363 0.148626
2009-05-28 12:23:32 51°36.168 2°52.942 -999 0.028933 0.16472 0.148626
2009-05-28 12:24:33 51°36.264 2°53.191 -999 0.02955 0.168137 0.148626
2009-05-28 12:25:33 51°36.361 2°53.435 -999 0.027492 0.156298 0.148626
2009-05-28 12:26:33 51°36.455 2°53.682 -999 0.028213 0.160469 0.148626
2009-05-28 12:27:32 51°36.546 2°53.926 -999 0.030991 0.176487 0.148626
2009-05-28 12:28:33 51°36.674 2°54.123 -999 0.02636 0.14978 0.148626
2009-05-28 12:29:32 51°36.81 2°54.29 -999 0.027801 0.158115 0.148626
2009-05-28 12:30:33 51°36.953 2°54.464 -999 0.026978 0.153304 0.148626
2009-05-28 12:31:33 51°37.093 2°54.633 -999 0.027286 0.155081 0.18345
2009-05-28 12:32:33 51°37.247 2°54.729 -999 0.027492 0.156225 0.148626
2009-05-28 12:33:32 51°37.413 2°54.715 -999 0.026875 0.152672 0.148626
2009-05-28 12:34:33 51°37.579 2°54.617 -999 0.028933 0.16453 0.148626
2009-05-28 12:35:32 51°37.73 2°54.476 -999 0.027492 0.156234 0.18345
2009-05-28 12:36:33 51°37.873 2°54.288 -999 0.028315 0.160947 0.148626
2009-05-28 12:37:33 51°38.014 2°54.099 -999 0.028418 0.161504 0.148626
2009-05-28 12:38:33 51°38.154 2°53.907 -999 0.027184 0.154412 0.148626
2009-05-28 12:39:33 51°38.296 2°53.717 -999 0.02811 0.159778 0.148626
2009-05-28 12:40:33 51°38.44 2°53.53 -999 0.028521 0.162124 0.148626
2009-05-28 12:41:33 51°38.583 2°53.342 -999 0.02811 0.159663 0.148626
2009-05-28 12:42:33 51°38.727 2°53.157 -999 0.027904 0.158551 0.148626
2009-05-28 12:43:33 51°38.872 2°52.971 -999 0.029962 0.170393 0.18345
2009-05-28 12:44:33 51°39.019 2°52.787 -999 0.028933 0.164369 0.18345
2009-05-28 12:45:33 51°39.138 2°52.554 -999 0.026052 0.147864 0.18345
2009-05-28 12:46:33 51°39.246 2°52.298 -999 0.027081 0.15376 0.18345
2009-05-28 12:47:33 51°39.353 2°52.041 -999 0.028315 0.160886 0.148626
2009-05-28 12:48:33 51°39.463 2°51.789 -999 0.026566 0.150827 0.18345
2009-05-28 12:49:33 51°39.574 2°51.537 -999 0.027081 0.153776 0.18345
2009-05-28 12:50:33 51°39.686 2°51.29 -999 0.027492 0.156119 0.18345
2009-05-28 12:51:33 51°39.729 2°50.993 -999 0.027389 0.155519 0.18345
2009-05-28 12:52:33 51°39.656 2°50.684 -999 0.026875 0.15254 0.18345
2009-05-28 12:53:33 51°39.541 2°50.396 -999 0.028315 0.160842 0.148626
2009-05-28 12:54:32 51°39.403 2°50.139 -999 0.028007 0.15902 0.18345
2009-05-28 12:55:32 51°39.234 2°49.925 -999 0.029036 0.164915 0.18345
2009-05-28 12:56:33 51°39.034 2°49.784 -999 0.028418 0.16133 0.148626
2009-05-28 12:57:33 51°38.826 2°49.675 -999 0.029447 0.167242 0.148626
2009-05-28 12:58:32 51°38.626 2°49.554 -999 0.029653 0.168508 0.18345
2009-05-28 12:59:33 51°38.425 2°49.416 -999 0.028624 0.162561 0.148626
2009-05-28 13:00:32 51°38.227 2°49.283 -999 0.026669 0.151228 0.18345
2009-05-28 13:01:33 51°38.024 2°49.135 -999 0.031403 0.178623 0.148626
2009-05-28 13:02:32 51°37.829 2°48.989 -999 0.028213 0.160088 0.18345
2009-05-28 13:03:33 51°37.627 2°48.834 -999 0.031094 0.176671 0.18345
2009-05-28 13:04:33 51°37.43 2°48.679 -999 0.028315 0.160648 0.18345
2009-05-28 13:05:33 51°37.233 2°48.525 -999 0.02955 0.167799 0.148626
2009-05-28 13:06:33 51°37.035 2°48.373 -999 0.027904 0.15826 0.18345
2009-05-28 13:07:33 51°36.838 2°48.22 -999 0.02955 0.167766 0.148626
2009-05-28 13:08:33 51°36.642 2°48.068 -999 0.027492 0.155842 0.18345
2009-05-28 13:09:33 51°36.445 2°47.917 -999 0.02955 0.167681 0.18345
2009-05-28 13:10:33 51°36.248 2°47.769 -999 0.030991 0.175977 0.18345
2009-05-28 13:11:32 51°36.056 2°47.623 -999 0.02811 0.159342 0.18345
2009-05-28 13:12:33 51°35.858 2°47.466 -999 0.028624 0.162307 0.18345
2009-05-28 13:13:33 51°35.663 2°47.316 -999 0.029447 0.167043 0.18345
2009-05-28 13:14:33 51°35.462 2°47.197 -999 0.028315 0.160547 0.18345
2009-05-28 13:15:33 51°35.25 2°47.17 -999 0.029859 0.169383 0.18345
2009-05-28 13:16:33 51°35.036 2°47.161 -999 0.027492 0.155834 0.18345
2009-05-28 13:17:32 51°34.826 2°47.153 -999 0.027595 0.156438 0.18345
2009-05-28 13:18:32 51°34.615 2°47.142 -999 0.031609 0.179446 0.18345
2009-05-28 13:19:32 51°34.403 2°47.127 -999 0.029242 0.165834 0.18345
2009-05-28 13:20:32 51°34.191 2°47.108 -999 0.02811 0.159291 0.18345
2009-05-28 13:21:33 51°33.978 2°47.095 -999 0.033461 0.190136 0.18345
2009-05-28 13:22:33 51°33.769 2°47.08 -999 0.027698 0.156907 0.18345
2009-05-28 13:23:33 51°33.559 2°47.063 -999 0.028933 0.164014 0.18345
2009-05-28 13:24:33 51°33.351 2°47.046 -999 0.027698 0.156947 0.18345
2009-05-28 13:25:33 51°33.144 2°47.032 -999 0.030374 0.172231 0.18345
2009-05-28 13:26:33 51°32.937 2°47.024 -999 0.026978 0.152697 0.18345
2009-05-28 13:27:33 51°32.732 2°46.998 -999 0.028727 0.162708 0.18345
2009-05-28 13:28:33 51°32.528 2°46.967 -999 0.029345 0.166291 0.18345
2009-05-28 13:29:33 51°32.324 2°46.949 -999 0.031094 0.176338 0.18345
2009-05-28 13:30:32 51°32.123 2°46.964 -999 0.030888 0.175144 0.18345
2009-05-28 13:31:33 51°31.917 2°47 -999 0.030374 0.172113 0.18345
2009-05-28 13:32:33 51°31.712 2°47.028 -999 0.030579 0.173333 0.18345
2009-05-28 13:33:32 51°31.51 2°47.061 -999 0.02955 0.167424 0.18345
2009-05-28 13:34:33 51°31.302 2°47.099 -999 0.029447 0.166787 0.18345
2009-05-28 13:35:33 51°31.097 2°47.135 -999 0.029756 0.168605 0.18345
2009-05-28 13:36:33 51°30.893 2°47.178 -999 0.027801 0.157379 0.18345
2009-05-28 13:37:33 51°30.688 2°47.221 -999 0.030888 0.175002 0.18345
2009-05-28 13:38:33 51°30.483 2°47.259 -999 0.029447 0.166748 0.18345
2009-05-28 13:39:33 51°30.278 2°47.298 -999 0.02811 0.159057 0.18345
2009-05-28 13:40:33 51°30.073 2°47.339 -999 0.029653 0.167853 0.18345
2009-05-28 13:41:33 51°29.87 2°47.379 -999 0.027595 0.156089 0.18345
2009-05-28 13:42:32 51°29.669 2°47.426 -999 0.028727 0.162562 0.18345
2009-05-28 13:43:32 51°29.463 2°47.469 -999 0.031608 0.179188 0.148626
2009-05-28 13:44:33 51°29.255 2°47.504 -999 0.030168 0.170848 0.18345
2009-05-28 13:45:33 51°29.05 2°47.521 -999 0.027595 0.156181 0.18345
2009-05-28 13:46:33 51°28.847 2°47.545 -999 0.028933 0.163816 0.18345
2009-05-28 13:47:33 51°28.644 2°47.566 -999 0.027595 0.15605 0.18345
2009-05-28 13:48:33 51°28.443 2°47.585 -999 0.029447 0.16661 0.18345
2009-05-28 13:49:33 51°28.245 2°47.602 -999 0.029859 0.169023 0.18345
2009-05-28 13:50:33 51°28.053 2°47.618 -999 0.028315 0.160165 0.18345
2009-05-28 13:51:33 51°27.862 2°47.63 -999 0.029242 0.165423 0.18345
2009-05-28 13:52:32 51°27.673 2°47.635 -999 0.030271 0.171307 0.18345
2009-05-28 13:53:33 51°27.477 2°47.642 -999 0.027492 0.155411 0.18345
2009-05-28 13:54:32 51°27.288 2°47.657 -999 0.026978 0.152463 0.148626
2009-05-28 13:55:33 51°27.093 2°47.673 -999 0.028521 0.161292 0.18345
2009-05-28 13:56:32 51°26.904 2°47.685 -999 0.0313 0.177189 0.18345
2009-05-28 13:57:33 51°26.706 2°47.705 -999 0.029345 0.165939 0.18345
2009-05-28 13:58:33 51°26.513 2°47.729 -999 0.029756 0.168277 0.218274
2009-05-28 13:59:33 51°26.318 2°47.749 -999 0.028315 0.160036 0.18345
2009-05-28 14:00:32 51°26.124 2°47.771 -999 0.029447 0.166434 0.218274
2009-05-28 14:01:33 51°25.924 2°47.795 -999 0.0313 0.177102 0.18345
2009-05-28 14:02:32 51°25.731 2°47.824 -999 0.028315 0.159996 0.18345
2009-05-28 14:03:33 51°25.538 2°47.85 -999 0.030065 0.169986 0.18345
2009-05-28 14:04:33 51°25.343 2°47.883 -999 0.027184 0.153518 0.18345
2009-05-28 14:05:33 51°25.162 2°47.987 -999 0.027389 0.154671 0.18345
2009-05-28 14:06:33 51°24.986 2°48.11 -999 0.027904 0.157633 0.18345
2009-05-28 14:07:33 51°24.805 2°48.224 -999 0.029447 0.166404 0.18345
2009-05-28 14:08:33 51°24.626 2°48.346 -999 0.033358 0.188839 0.18345
2009-05-28 14:09:33 51°24.446 2°48.472 -999 0.030477 0.172295 0.18345
2009-05-28 14:10:33 51°24.265 2°48.598 -999 0.028418 0.160482 0.18345
2009-05-28 14:11:32 51°24.087 2°48.716 -999 0.029447 0.166314 0.18345
2009-05-28 14:12:33 51°23.904 2°48.845 -999 0.031608 0.178693 0.18345
2009-05-28 14:13:33 51°23.723 2°48.966 -999 0.031403 0.177541 0.18345
2009-05-28 14:14:33 51°23.54 2°49.086 -999 0.028727 0.162187 0.18345
2009-05-28 14:15:33 51°23.358 2°49.211 -999 0.03202 0.18101 0.18345
2009-05-28 14:16:32 51°23.177 2°49.325 -999 0.030168 0.170411 0.218274
2009-05-28 14:17:33 51°22.992 2°49.453 -999 0.030168 0.170384 0.18345
2009-05-28 14:18:33 51°22.811 2°49.583 -999 0.031094 0.175619 0.18345
2009-05-28 14:19:32 51°22.633 2°49.709 -999 0.030682 0.173212 0.18345
2009-05-28 14:20:33 51°22.452 2°49.844 -999 0.030682 0.173275 0.18345
2009-05-28 14:21:32 51°22.278 2°49.971 -999 0.028933 0.163201 0.18345
2009-05-28 14:22:33 51°22.097 2°50.098 -999 0.029447 0.166103 0.18345
2009-05-28 14:23:33 51°21.919 2°50.224 -999 0.029139 0.16434 0.18345
2009-05-28 14:24:33 51°21.742 2°50.338 -999 0.02883 0.162613 0.18345
2009-05-28 14:25:33 51°21.569 2°50.447 -999 0.029242 0.164958 0.18345
2009-05-28 14:26:33 51°21.396 2°50.556 -999 0.030477 0.171917 0.18345
2009-05-28 14:27:33 51°21.223 2°50.667 -999 0.028315 0.159574 0.18345
2009-05-28 14:28:32 51°21.054 2°50.784 -999 0.029962 0.168982 0.18345
2009-05-28 14:29:33 51°20.877 2°50.892 -999 0.030065 0.169553 0.18345
2009-05-28 14:30:33 51°20.701 2°50.997 -999 0.030271 0.170726 0.18345
2009-05-28 14:31:32 51°20.528 2°51.104 -999 0.029139 0.164161 0.18345
2009-05-28 14:32:33 51°20.349 2°51.214 -999 0.029242 0.164799 0.18345
2009-05-28 14:33:33 51°20.172 2°51.312 -999 0.030888 0.174168 0.18345
2009-05-28 14:34:33 51°19.993 2°51.4 -999 0.030579 0.172346 0.18345
2009-05-28 14:35:33 51°19.813 2°51.484 -999 0.030168 0.16996 0.18345
2009-05-28 14:36:33 51°19.633 2°51.565 -999 0.029756 0.167615 0.18345
2009-05-28 14:37:33 51°19.455 2°51.645 -999 0.028624 0.161127 0.18345
2009-05-28 14:38:33 51°19.275 2°51.724 -999 0.029036 0.163442 0.218274
2009-05-28 14:39:33 51°19.094 2°51.805 -999 0.030476 0.171597 0.18345
2009-05-28 14:40:33 51°18.915 2°51.884 -999 0.033975 0.191623 0.18345
2009-05-28 14:41:33 51°18.734 2°51.943 -999 0.030888 0.173965 0.18345
2009-05-28 14:42:33 51°18.552 2°51.992 -999 0.029859 0.168074 0.18345
2009-05-28 14:43:33 51°18.372 2°52.044 -999 0.029859 0.168047 0.18345
2009-05-28 14:44:33 51°18.192 2°52.101 -999 0.028007 0.157411 0.18345
2009-05-28 14:45:33 51°18.013 2°52.158 -999 0.029653 0.166854 0.18345
2009-05-28 14:46:33 51°17.834 2°52.212 -999 0.030374 0.170886 0.18345
2009-05-28 14:47:33 51°17.656 2°52.274 -999 0.029242 0.164485 0.18345
2009-05-28 14:48:32 51°17.483 2°52.358 -999 0.030271 0.170286 0.18345
2009-05-28 14:49:33 51°17.305 2°52.461 -999 0.030374 0.17074 0.18345
2009-05-28 14:50:33 51°17.132 2°52.574 -999 0.028624 0.160847 0.18345
2009-05-28 14:51:33 51°16.96 2°52.691 -999 0.02955 0.166092 0.18345
2009-05-28 14:52:33 51°16.788 2°52.809 -999 0.030271 0.17028 0.18345
2009-05-28 14:53:33 51°16.614 2°52.93 -999 0.02811 0.157982 0.18345
2009-05-28 14:54:33 51°16.437 2°53.04 -999 0.030476 0.171413 0.218274
2009-05-28 14:55:32 51°16.265 2°53.152 -999 0.0313 0.17605 0.18345
2009-05-28 14:56:32 51°16.092 2°53.264 -999 0.029859 0.167777 0.18345
2009-05-28 14:57:33 51°15.917 2°53.367 -999 0.0313 0.175987 0.18345
2009-05-28 14:58:33 51°15.744 2°53.463 -999 0.029756 0.167116 0.18345
2009-05-28 14:59:33 51°15.57 2°53.557 -999 0.031094 0.174726 0.18345
2009-05-28 15:00:32 51°15.4 2°53.649 -999 0.029756 0.167081 0.18345
2009-05-28 15:01:33 51°15.223 2°53.737 -999 0.029962 0.168217 0.18345
2009-05-28 15:02:33 51°15.048 2°53.821 -999 0.028315 0.158866 0.218274
2009-05-28 15:03:33 51°14.876 2°53.925 -999 0.027492 0.15408 0.18345
2009-05-28 15:04:33 51°14.756 2°54.174 -999 0.028624 0.160499 0.218274
2009-05-28 15:05:33 51°14.646 2°54.451 -999 0.030579 0.171654 0.218274
2009-05-28 15:06:34 51°14.523 2°54.718 -999 0.029242 0.164047 0.18345
2009-05-28 15:07:33 51°14.407 2°54.987 -999 0.02955 0.165732 0.218274
2009-05-28 15:08:32 51°14.297 2°55.18 -999 0.030476 0.170931 0.18345
2009-05-28 15:09:33 51°14.239 2°55.295 -999 0.029036 0.162684 0.218274
2009-05-28 15:10:33 51°14.183 2°55.37 -999 0.029345 0.164478 0.218274
2009-05-28 15:11:32 51°14.113 2°55.423 -999 0.029962 0.167978 0.218274
2009-05-28 15:12:33 51°14.007 2°55.495 -999 0.030682 0.172035 0.218274
2009-05-28 15:13:33 51°13.889 2°55.578 -999 0.029344 0.164387 0.18345
2009-05-28 15:14:33 51°13.792 2°55.656 -999 0.030888 0.173131 0.18345
2009-05-28 15:15:33 51°13.731 2°55.758 -999 0.030476 0.170748 0.18345
2009-05-28 15:16:33 51°13.686 2°55.854 -999 0.030476 0.170739 0.218274